sensor_id;sensor_type;location;lat;lon;timestamp;temperature;humidity
26254;DHT22;53339;51.378;0.094;2023-06-04T00:02:26;12.60;53.20
26254;DHT22;53339;51.378;0.094;2023-06-04T00:04:54;12.40;53.40
26254;DHT22;53339;51.378;0.094;2023-06-04T00:07:22;12.40;53.80
26254;DHT22;53339;51.378;0.094;2023-06-04T00:09:49;12.30;54.10
26254;DHT22;53339;51.378;0.094;2023-06-04T00:12:17;12.20;54.20
26254;DHT22;53339;51.378;0.094;2023-06-04T00:14:45;12.20;54.40
26254;DHT22;53339;51.378;0.094;2023-06-04T00:17:13;12.10;54.60
26254;DHT22;53339;51.378;0.094;2023-06-04T00:19:40;12.20;54.70
26254;DHT22;53339;51.378;0.094;2023-06-04T00:22:08;12.10;54.80
26254;DHT22;53339;51.378;0.094;2023-06-04T00:24:37;12.10;55.20
26254;DHT22;53339;51.378;0.094;2023-06-04T00:27:07;12.00;55.50
26254;DHT22;53339;51.378;0.094;2023-06-04T00:29:35;12.00;55.80
26254;DHT22;53339;51.378;0.094;2023-06-04T00:32:03;11.90;55.90
26254;DHT22;53339;51.378;0.094;2023-06-04T00:34:31;11.90;56.00
26254;DHT22;53339;51.378;0.094;2023-06-04T00:36:59;11.80;56.50
26254;DHT22;53339;51.378;0.094;2023-06-04T00:39:28;11.80;56.60
26254;DHT22;53339;51.378;0.094;2023-06-04T00:41:57;11.80;56.80
26254;DHT22;53339;51.378;0.094;2023-06-04T00:44:25;11.80;56.80
26254;DHT22;53339;51.378;0.094;2023-06-04T00:46:53;11.80;57.10
26254;DHT22;53339;51.378;0.094;2023-06-04T00:49:23;11.70;57.20
26254;DHT22;53339;51.378;0.094;2023-06-04T00:51:51;11.70;57.40
26254;DHT22;53339;51.378;0.094;2023-06-04T00:54:19;11.70;57.70
26254;DHT22;53339;51.378;0.094;2023-06-04T00:56:48;11.70;57.70
26254;DHT22;53339;51.378;0.094;2023-06-04T00:59:16;11.70;58.10
26254;DHT22;53339;51.378;0.094;2023-06-04T01:01:54;11.70;58.20
26254;DHT22;53339;51.378;0.094;2023-06-04T01:04:29;11.70;58.20
26254;DHT22;53339;51.378;0.094;2023-06-04T01:07:00;11.70;58.60
26254;DHT22;53339;51.378;0.094;2023-06-04T01:09:29;11.80;58.80
26254;DHT22;53339;51.378;0.094;2023-06-04T01:11:57;11.80;58.90
26254;DHT22;53339;51.378;0.094;2023-06-04T01:14:26;11.70;59.00
26254;DHT22;53339;51.378;0.094;2023-06-04T01:17:02;11.70;59.20
26254;DHT22;53339;51.378;0.094;2023-06-04T01:25:39;11.70;59.90
26254;DHT22;53339;51.378;0.094;2023-06-04T01:28:09;11.70;60.20
26254;DHT22;53339;51.378;0.094;2023-06-04T01:30:45;11.60;60.50
26254;DHT22;53339;51.378;0.094;2023-06-04T01:33:17;11.60;60.90
26254;DHT22;53339;51.378;0.094;2023-06-04T01:35:45;11.60;61.60
26254;DHT22;53339;51.378;0.094;2023-06-04T01:38:13;11.60;61.60
26254;DHT22;53339;51.378;0.094;2023-06-04T01:40:41;11.50;61.80
26254;DHT22;53339;51.378;0.094;2023-06-04T01:43:09;11.50;62.20
26254;DHT22;53339;51.378;0.094;2023-06-04T01:45:37;11.50;62.40
26254;DHT22;53339;51.378;0.094;2023-06-04T01:48:05;11.50;62.50
26254;DHT22;53339;51.378;0.094;2023-06-04T01:50:33;11.50;62.90
26254;DHT22;53339;51.378;0.094;2023-06-04T01:53:01;11.40;62.90
26254;DHT22;53339;51.378;0.094;2023-06-04T01:55:29;11.40;63.10
26254;DHT22;53339;51.378;0.094;2023-06-04T01:58:01;11.40;63.40
26254;DHT22;53339;51.378;0.094;2023-06-04T02:00:29;11.30;63.40
26254;DHT22;53339;51.378;0.094;2023-06-04T02:02:57;11.30;63.50
26254;DHT22;53339;51.378;0.094;2023-06-04T02:05:25;11.20;63.40
26254;DHT22;53339;51.378;0.094;2023-06-04T02:07:53;11.20;63.50
26254;DHT22;53339;51.378;0.094;2023-06-04T02:10:21;11.20;63.80
26254;DHT22;53339;51.378;0.094;2023-06-04T02:12:58;11.10;63.90
26254;DHT22;53339;51.378;0.094;2023-06-04T02:15:27;11.10;64.00
26254;DHT22;53339;51.378;0.094;2023-06-04T02:18:15;11.10;64.30
26254;DHT22;53339;51.378;0.094;2023-06-04T02:20:45;11.10;65.00
26254;DHT22;53339;51.378;0.094;2023-06-04T02:23:15;11.10;65.00
26254;DHT22;53339;51.378;0.094;2023-06-04T02:25:43;11.00;64.90
26254;DHT22;53339;51.378;0.094;2023-06-04T02:28:15;11.00;64.90
26254;DHT22;53339;51.378;0.094;2023-06-04T02:30:44;11.00;65.00
26254;DHT22;53339;51.378;0.094;2023-06-04T02:33:13;11.00;65.10
26254;DHT22;53339;51.378;0.094;2023-06-04T02:35:41;11.00;65.40
26254;DHT22;53339;51.378;0.094;2023-06-04T02:38:09;10.90;66.30
26254;DHT22;53339;51.378;0.094;2023-06-04T02:40:38;10.90;66.30
26254;DHT22;53339;51.378;0.094;2023-06-04T02:43:06;10.90;66.50
26254;DHT22;53339;51.378;0.094;2023-06-04T02:45:33;10.90;66.50
26254;DHT22;53339;51.378;0.094;2023-06-04T02:48:01;10.90;66.60
26254;DHT22;53339;51.378;0.094;2023-06-04T02:50:29;10.90;66.40
26254;DHT22;53339;51.378;0.094;2023-06-04T02:52:57;10.90;66.50
26254;DHT22;53339;51.378;0.094;2023-06-04T02:55:25;10.90;66.40
26254;DHT22;53339;51.378;0.094;2023-06-04T02:57:53;10.90;66.40
26254;DHT22;53339;51.378;0.094;2023-06-04T03:00:20;10.80;66.40
26254;DHT22;53339;51.378;0.094;2023-06-04T03:02:48;10.80;66.40
26254;DHT22;53339;51.378;0.094;2023-06-04T03:05:16;10.70;66.60
26254;DHT22;53339;51.378;0.094;2023-06-04T03:07:46;10.60;66.70
26254;DHT22;53339;51.378;0.094;2023-06-04T03:10:15;10.60;66.80
26254;DHT22;53339;51.378;0.094;2023-06-04T03:12:44;10.60;66.90
26254;DHT22;53339;51.378;0.094;2023-06-04T03:15:11;10.50;67.10
26254;DHT22;53339;51.378;0.094;2023-06-04T03:17:40;10.50;67.10
26254;DHT22;53339;51.378;0.094;2023-06-04T03:20:08;10.50;67.10
26254;DHT22;53339;51.378;0.094;2023-06-04T03:22:37;10.40;67.20
26254;DHT22;53339;51.378;0.094;2023-06-04T03:25:05;10.30;67.30
26254;DHT22;53339;51.378;0.094;2023-06-04T03:27:34;10.30;67.40
26254;DHT22;53339;51.378;0.094;2023-06-04T03:30:03;10.20;67.50
26254;DHT22;53339;51.378;0.094;2023-06-04T03:32:54;10.10;67.70
26254;DHT22;53339;51.378;0.094;2023-06-04T03:35:22;10.00;67.80
26254;DHT22;53339;51.378;0.094;2023-06-04T03:37:49;9.90;68.00
26254;DHT22;53339;51.378;0.094;2023-06-04T03:40:17;9.80;68.20
26254;DHT22;53339;51.378;0.094;2023-06-04T03:42:46;9.80;68.40
26254;DHT22;53339;51.378;0.094;2023-06-04T03:45:15;9.80;68.60
26254;DHT22;53339;51.378;0.094;2023-06-04T03:47:45;9.70;68.60
26254;DHT22;53339;51.378;0.094;2023-06-04T03:50:14;9.70;68.60
26254;DHT22;53339;51.378;0.094;2023-06-04T03:52:42;9.70;68.70
26254;DHT22;53339;51.378;0.094;2023-06-04T03:55:09;9.70;68.80
26254;DHT22;53339;51.378;0.094;2023-06-04T03:57:39;9.70;68.90
26254;DHT22;53339;51.378;0.094;2023-06-04T04:00:08;9.70;69.00
26254;DHT22;53339;51.378;0.094;2023-06-04T04:02:48;9.70;68.90
26254;DHT22;53339;51.378;0.094;2023-06-04T04:05:21;9.70;69.00
26254;DHT22;53339;51.378;0.094;2023-06-04T04:07:50;9.70;69.00
26254;DHT22;53339;51.378;0.094;2023-06-04T04:10:22;9.60;69.00
26254;DHT22;53339;51.378;0.094;2023-06-04T04:12:50;9.60;69.10
26254;DHT22;53339;51.378;0.094;2023-06-04T04:15:20;9.60;69.30
26254;DHT22;53339;51.378;0.094;2023-06-04T04:17:49;9.60;69.40
26254;DHT22;53339;51.378;0.094;2023-06-04T04:20:17;9.50;69.40
26254;DHT22;53339;51.378;0.094;2023-06-04T04:22:56;9.50;69.50
26254;DHT22;53339;51.378;0.094;2023-06-04T04:25:25;9.60;69.60
26254;DHT22;53339;51.378;0.094;2023-06-04T04:27:53;9.50;69.70
26254;DHT22;53339;51.378;0.094;2023-06-04T04:30:25;9.60;69.80
26254;DHT22;53339;51.378;0.094;2023-06-04T04:32:53;9.60;69.80
26254;DHT22;53339;51.378;0.094;2023-06-04T04:35:27;9.60;69.80
26254;DHT22;53339;51.378;0.094;2023-06-04T04:37:58;9.70;69.70
26254;DHT22;53339;51.378;0.094;2023-06-04T04:40:26;9.70;69.90
26254;DHT22;53339;51.378;0.094;2023-06-04T04:42:57;9.70;70.00
26254;DHT22;53339;51.378;0.094;2023-06-04T04:45:25;9.70;70.10
26254;DHT22;53339;51.378;0.094;2023-06-04T04:47:56;9.80;70.20
26254;DHT22;53339;51.378;0.094;2023-06-04T04:50:24;9.80;70.10
26254;DHT22;53339;51.378;0.094;2023-06-04T04:52:52;9.90;70.10
26254;DHT22;53339;51.378;0.094;2023-06-04T04:55:20;10.00;70.30
26254;DHT22;53339;51.378;0.094;2023-06-04T04:57:50;10.10;70.30
26254;DHT22;53339;51.378;0.094;2023-06-04T05:00:18;10.20;70.20
26254;DHT22;53339;51.378;0.094;2023-06-04T05:02:50;10.20;70.20
26254;DHT22;53339;51.378;0.094;2023-06-04T05:05:18;10.30;70.20
26254;DHT22;53339;51.378;0.094;2023-06-04T05:07:47;10.40;70.30
26254;DHT22;53339;51.378;0.094;2023-06-04T05:10:16;10.50;70.40
26254;DHT22;53339;51.378;0.094;2023-06-04T05:12:58;10.60;70.40
26254;DHT22;53339;51.378;0.094;2023-06-04T05:15:33;10.60;70.40
26254;DHT22;53339;51.378;0.094;2023-06-04T05:18:02;10.70;70.40
26254;DHT22;53339;51.378;0.094;2023-06-04T05:20:34;10.80;70.30
26254;DHT22;53339;51.378;0.094;2023-06-04T05:23:07;10.90;70.20
26254;DHT22;53339;51.378;0.094;2023-06-04T05:25:35;10.90;70.30
26254;DHT22;53339;51.378;0.094;2023-06-04T05:28:05;11.00;70.50
26254;DHT22;53339;51.378;0.094;2023-06-04T05:30:34;11.00;70.80
26254;DHT22;53339;51.378;0.094;2023-06-04T05:33:02;11.10;71.00
26254;DHT22;53339;51.378;0.094;2023-06-04T05:35:30;11.20;70.90
26254;DHT22;53339;51.378;0.094;2023-06-04T05:38:00;11.30;70.90
26254;DHT22;53339;51.378;0.094;2023-06-04T05:40:30;11.30;70.90
26254;DHT22;53339;51.378;0.094;2023-06-04T05:42:58;11.40;71.00
26254;DHT22;53339;51.378;0.094;2023-06-04T05:45:26;11.60;71.00
26254;DHT22;53339;51.378;0.094;2023-06-04T05:47:54;11.60;70.90
26254;DHT22;53339;51.378;0.094;2023-06-04T05:50:24;11.70;70.80
26254;DHT22;53339;51.378;0.094;2023-06-04T05:52:52;11.80;71.00
26254;DHT22;53339;51.378;0.094;2023-06-04T05:55:21;11.90;70.90
26254;DHT22;53339;51.378;0.094;2023-06-04T05:57:49;11.90;70.80
26254;DHT22;53339;51.378;0.094;2023-06-04T06:00:19;12.00;70.80
26254;DHT22;53339;51.378;0.094;2023-06-04T06:02:50;12.00;70.70
26254;DHT22;53339;51.378;0.094;2023-06-04T06:05:32;12.10;70.90
26254;DHT22;53339;51.378;0.094;2023-06-04T06:07:59;12.20;70.90
26254;DHT22;53339;51.378;0.094;2023-06-04T06:10:27;12.20;70.90
26254;DHT22;53339;51.378;0.094;2023-06-04T06:12:55;12.20;70.90
26254;DHT22;53339;51.378;0.094;2023-06-04T06:15:22;12.20;71.00
26254;DHT22;53339;51.378;0.094;2023-06-04T06:17:51;12.30;70.90
26254;DHT22;53339;51.378;0.094;2023-06-04T06:20:19;12.30;71.10
26254;DHT22;53339;51.378;0.094;2023-06-04T06:22:48;12.40;71.00
26254;DHT22;53339;51.378;0.094;2023-06-04T06:25:17;12.40;70.80
26254;DHT22;53339;51.378;0.094;2023-06-04T06:27:51;12.60;70.70
26254;DHT22;53339;51.378;0.094;2023-06-04T06:30:22;12.60;70.50
26254;DHT22;53339;51.378;0.094;2023-06-04T06:32:50;12.60;70.40
26254;DHT22;53339;51.378;0.094;2023-06-04T06:35:20;12.70;70.40
26254;DHT22;53339;51.378;0.094;2023-06-04T06:37:48;12.80;70.30
26254;DHT22;53339;51.378;0.094;2023-06-04T06:40:15;12.80;70.10
26254;DHT22;53339;51.378;0.094;2023-06-04T06:42:48;12.90;70.10
26254;DHT22;53339;51.378;0.094;2023-06-04T06:45:18;13.00;70.00
26254;DHT22;53339;51.378;0.094;2023-06-04T06:47:46;13.10;69.90
26254;DHT22;53339;51.378;0.094;2023-06-04T06:50:14;13.10;69.70
26254;DHT22;53339;51.378;0.094;2023-06-04T06:52:41;13.20;69.70
26254;DHT22;53339;51.378;0.094;2023-06-04T06:55:09;13.20;69.60
26254;DHT22;53339;51.378;0.094;2023-06-04T06:57:37;13.30;69.40
26254;DHT22;53339;51.378;0.094;2023-06-04T07:00:05;13.40;69.20
26254;DHT22;53339;51.378;0.094;2023-06-04T07:02:33;13.50;69.10
26254;DHT22;53339;51.378;0.094;2023-06-04T07:05:01;13.60;69.00
26254;DHT22;53339;51.378;0.094;2023-06-04T07:07:29;13.70;68.90
26254;DHT22;53339;51.378;0.094;2023-06-04T07:09:56;13.70;68.70
26254;DHT22;53339;51.378;0.094;2023-06-04T07:12:24;13.90;68.50
26254;DHT22;53339;51.378;0.094;2023-06-04T07:14:52;13.90;68.30
26254;DHT22;53339;51.378;0.094;2023-06-04T07:17:20;13.90;68.30
26254;DHT22;53339;51.378;0.094;2023-06-04T07:19:47;14.00;68.20
26254;DHT22;53339;51.378;0.094;2023-06-04T07:22:15;14.10;68.00
26254;DHT22;53339;51.378;0.094;2023-06-04T07:24:43;14.10;68.00
26254;DHT22;53339;51.378;0.094;2023-06-04T07:27:12;14.20;67.90
26254;DHT22;53339;51.378;0.094;2023-06-04T07:29:40;14.20;67.80
26254;DHT22;53339;51.378;0.094;2023-06-04T07:32:10;14.30;67.70
26254;DHT22;53339;51.378;0.094;2023-06-04T07:34:38;14.40;67.70
26254;DHT22;53339;51.378;0.094;2023-06-04T07:37:06;14.50;67.60
26254;DHT22;53339;51.378;0.094;2023-06-04T07:39:33;14.60;67.40
26254;DHT22;53339;51.378;0.094;2023-06-04T07:42:01;14.70;67.10
26254;DHT22;53339;51.378;0.094;2023-06-04T07:44:29;14.70;66.90
26254;DHT22;53339;51.378;0.094;2023-06-04T07:46:57;14.80;66.90
26254;DHT22;53339;51.378;0.094;2023-06-04T07:49:24;14.90;66.60
26254;DHT22;53339;51.378;0.094;2023-06-04T07:51:52;15.00;66.60
26254;DHT22;53339;51.378;0.094;2023-06-04T07:54:20;15.10;66.30
26254;DHT22;53339;51.378;0.094;2023-06-04T07:56:48;15.10;66.00
26254;DHT22;53339;51.378;0.094;2023-06-04T07:59:15;15.20;66.00
26254;DHT22;53339;51.378;0.094;2023-06-04T08:01:43;15.30;65.80
26254;DHT22;53339;51.378;0.094;2023-06-04T08:04:10;15.40;65.70
26254;DHT22;53339;51.378;0.094;2023-06-04T08:06:38;15.50;65.50
26254;DHT22;53339;51.378;0.094;2023-06-04T08:09:07;15.60;65.20
26254;DHT22;53339;51.378;0.094;2023-06-04T08:11:38;15.70;65.00
26254;DHT22;53339;51.378;0.094;2023-06-04T08:14:06;15.80;64.70
26254;DHT22;53339;51.378;0.094;2023-06-04T08:16:34;15.90;64.60
26254;DHT22;53339;51.378;0.094;2023-06-04T08:19:08;16.00;64.50
26254;DHT22;53339;51.378;0.094;2023-06-04T08:21:43;16.10;64.20
26254;DHT22;53339;51.378;0.094;2023-06-04T08:24:29;16.20;63.60
26254;DHT22;53339;51.378;0.094;2023-06-04T08:27:12;16.30;63.60
26254;DHT22;53339;51.378;0.094;2023-06-04T08:29:50;16.40;63.40
26254;DHT22;53339;51.378;0.094;2023-06-04T08:32:39;16.40;63.40
26254;DHT22;53339;51.378;0.094;2023-06-04T08:35:18;16.60;62.80
26254;DHT22;53339;51.378;0.094;2023-06-04T08:37:45;16.60;62.40
26254;DHT22;53339;51.378;0.094;2023-06-04T08:40:13;16.70;62.30
26254;DHT22;53339;51.378;0.094;2023-06-04T08:42:42;16.70;62.20
26254;DHT22;53339;51.378;0.094;2023-06-04T08:45:13;16.70;62.10
26254;DHT22;53339;51.378;0.094;2023-06-04T08:47:44;16.90;62.10
26254;DHT22;53339;51.378;0.094;2023-06-04T08:50:14;16.90;61.60
26254;DHT22;53339;51.378;0.094;2023-06-04T08:52:44;17.00;61.40
26254;DHT22;53339;51.378;0.094;2023-06-04T08:55:13;17.10;61.40
26254;DHT22;53339;51.378;0.094;2023-06-04T08:57:43;17.20;61.30
26254;DHT22;53339;51.378;0.094;2023-06-04T09:00:11;17.20;61.10
26254;DHT22;53339;51.378;0.094;2023-06-04T09:02:40;17.30;61.10
26254;DHT22;53339;51.378;0.094;2023-06-04T09:05:08;17.40;61.20
26254;DHT22;53339;51.378;0.094;2023-06-04T09:07:39;17.50;61.00
26254;DHT22;53339;51.378;0.094;2023-06-04T09:10:09;17.70;60.70
26254;DHT22;53339;51.378;0.094;2023-06-04T09:12:43;17.80;60.70
26254;DHT22;53339;51.378;0.094;2023-06-04T09:15:12;17.90;60.20
26254;DHT22;53339;51.378;0.094;2023-06-04T09:17:39;18.00;59.60
26254;DHT22;53339;51.378;0.094;2023-06-04T09:20:07;18.10;59.60
26254;DHT22;53339;51.378;0.094;2023-06-04T09:22:38;18.20;59.70
26254;DHT22;53339;51.378;0.094;2023-06-04T09:25:06;18.20;59.40
26254;DHT22;53339;51.378;0.094;2023-06-04T09:27:39;18.40;59.00
26254;DHT22;53339;51.378;0.094;2023-06-04T09:30:08;18.40;58.80
26254;DHT22;53339;51.378;0.094;2023-06-04T09:32:37;18.50;58.50
26254;DHT22;53339;51.378;0.094;2023-06-04T09:35:18;18.60;58.00
26254;DHT22;53339;51.378;0.094;2023-06-04T09:37:56;18.60;57.90
26254;DHT22;53339;51.378;0.094;2023-06-04T09:40:35;18.70;57.80
26254;DHT22;53339;51.378;0.094;2023-06-04T09:43:04;18.70;57.10
26254;DHT22;53339;51.378;0.094;2023-06-04T09:45:34;18.80;57.20
26254;DHT22;53339;51.378;0.094;2023-06-04T09:48:04;18.90;57.10
26254;DHT22;53339;51.378;0.094;2023-06-04T09:50:36;19.00;56.20
26254;DHT22;53339;51.378;0.094;2023-06-04T09:53:19;19.00;55.90
26254;DHT22;53339;51.378;0.094;2023-06-04T09:55:57;19.10;56.10
26254;DHT22;53339;51.378;0.094;2023-06-04T09:58:29;19.10;55.70
26254;DHT22;53339;51.378;0.094;2023-06-04T10:00:58;19.20;55.90
26254;DHT22;53339;51.378;0.094;2023-06-04T10:03:30;19.40;55.70
26254;DHT22;53339;51.378;0.094;2023-06-04T10:06:00;19.50;55.20
26254;DHT22;53339;51.378;0.094;2023-06-04T10:08:30;19.70;55.30
26254;DHT22;53339;51.378;0.094;2023-06-04T10:11:00;19.80;55.10
26254;DHT22;53339;51.378;0.094;2023-06-04T10:13:41;19.90;54.10
26254;DHT22;53339;51.378;0.094;2023-06-04T10:16:11;20.00;54.50
26254;DHT22;53339;51.378;0.094;2023-06-04T10:18:52;20.10;54.20
26254;DHT22;53339;51.378;0.094;2023-06-04T10:21:23;20.20;53.50
26254;DHT22;53339;51.378;0.094;2023-06-04T10:23:51;20.20;53.40
26254;DHT22;53339;51.378;0.094;2023-06-04T10:26:19;20.30;53.80
26254;DHT22;53339;51.378;0.094;2023-06-04T10:28:47;20.40;52.70
26254;DHT22;53339;51.378;0.094;2023-06-04T10:31:15;20.40;52.00
26254;DHT22;53339;51.378;0.094;2023-06-04T10:33:43;20.40;52.20
26254;DHT22;53339;51.378;0.094;2023-06-04T10:36:18;20.50;52.00
26254;DHT22;53339;51.378;0.094;2023-06-04T10:38:48;20.60;51.90
26254;DHT22;53339;51.378;0.094;2023-06-04T10:41:17;20.60;51.90
26254;DHT22;53339;51.378;0.094;2023-06-04T10:43:45;20.70;50.80
26254;DHT22;53339;51.378;0.094;2023-06-04T10:46:14;20.70;51.20
26254;DHT22;53339;51.378;0.094;2023-06-04T10:48:52;20.90;51.60
26254;DHT22;53339;51.378;0.094;2023-06-04T10:51:31;21.00;51.60
26254;DHT22;53339;51.378;0.094;2023-06-04T10:54:00;21.10;51.60
26254;DHT22;53339;51.378;0.094;2023-06-04T10:56:31;21.20;51.00
26254;DHT22;53339;51.378;0.094;2023-06-04T10:59:00;21.30;51.20
26254;DHT22;53339;51.378;0.094;2023-06-04T11:01:29;21.40;50.70
26254;DHT22;53339;51.378;0.094;2023-06-04T11:03:59;21.40;50.50
26254;DHT22;53339;51.378;0.094;2023-06-04T11:06:26;21.60;50.80
26254;DHT22;53339;51.378;0.094;2023-06-04T11:09:05;21.60;50.60
26254;DHT22;53339;51.378;0.094;2023-06-04T11:11:32;21.70;50.50
26254;DHT22;53339;51.378;0.094;2023-06-04T11:14:10;21.80;50.50
26254;DHT22;53339;51.378;0.094;2023-06-04T11:16:40;21.90;49.70
26254;DHT22;53339;51.378;0.094;2023-06-04T11:19:07;22.10;48.40
26254;DHT22;53339;51.378;0.094;2023-06-04T11:21:35;22.00;47.90
26254;DHT22;53339;51.378;0.094;2023-06-04T11:24:06;21.90;48.50
26254;DHT22;53339;51.378;0.094;2023-06-04T11:26:35;21.90;48.70
26254;DHT22;53339;51.378;0.094;2023-06-04T11:29:09;22.10;48.30
26254;DHT22;53339;51.378;0.094;2023-06-04T11:34:10;22.20;47.80
26254;DHT22;53339;51.378;0.094;2023-06-04T11:36:41;22.20;47.90
26254;DHT22;53339;51.378;0.094;2023-06-04T11:39:09;22.40;48.00
26254;DHT22;53339;51.378;0.094;2023-06-04T11:41:37;22.60;47.40
26254;DHT22;53339;51.378;0.094;2023-06-04T11:44:06;22.70;46.60
26254;DHT22;53339;51.378;0.094;2023-06-04T11:46:40;22.70;47.00
26254;DHT22;53339;51.378;0.094;2023-06-04T11:49:12;22.80;46.60
26254;DHT22;53339;51.378;0.094;2023-06-04T11:51:52;23.00;46.50
26254;DHT22;53339;51.378;0.094;2023-06-04T11:54:21;23.10;46.10
26254;DHT22;53339;51.378;0.094;2023-06-04T11:56:50;23.30;45.80
26254;DHT22;53339;51.378;0.094;2023-06-04T11:59:18;23.40;45.30
26254;DHT22;53339;51.378;0.094;2023-06-04T12:01:46;23.50;44.70
26254;DHT22;53339;51.378;0.094;2023-06-04T12:04:19;23.60;44.20
26254;DHT22;53339;51.378;0.094;2023-06-04T12:07:01;23.60;44.00
26254;DHT22;53339;51.378;0.094;2023-06-04T12:09:32;23.70;43.60
26254;DHT22;53339;51.378;0.094;2023-06-04T12:12:04;23.80;43.60
26254;DHT22;53339;51.378;0.094;2023-06-04T12:14:32;23.90;42.90
26254;DHT22;53339;51.378;0.094;2023-06-04T12:17:10;24.10;43.20
26254;DHT22;53339;51.378;0.094;2023-06-04T12:19:49;24.20;41.50
26254;DHT22;53339;51.378;0.094;2023-06-04T12:22:17;24.20;41.30
26254;DHT22;53339;51.378;0.094;2023-06-04T12:24:55;24.10;41.30
26254;DHT22;53339;51.378;0.094;2023-06-04T12:27:25;24.30;40.70
26254;DHT22;53339;51.378;0.094;2023-06-04T12:30:00;24.60;40.70
26254;DHT22;53339;51.378;0.094;2023-06-04T12:32:28;25.10;40.00
26254;DHT22;53339;51.378;0.094;2023-06-04T12:34:56;25.60;38.70
26254;DHT22;53339;51.378;0.094;2023-06-04T12:37:24;26.10;38.10
26254;DHT22;53339;51.378;0.094;2023-06-04T12:39:55;26.60;37.80
26254;DHT22;53339;51.378;0.094;2023-06-04T12:42:22;27.00;37.70
26254;DHT22;53339;51.378;0.094;2023-06-04T12:44:51;27.50;37.30
26254;DHT22;53339;51.378;0.094;2023-06-04T12:47:18;27.90;36.10
26254;DHT22;53339;51.378;0.094;2023-06-04T12:49:47;28.30;35.40
26254;DHT22;53339;51.378;0.094;2023-06-04T12:52:16;28.70;35.40
26254;DHT22;53339;51.378;0.094;2023-06-04T12:54:44;29.00;35.00
26254;DHT22;53339;51.378;0.094;2023-06-04T12:57:12;29.00;34.40
26254;DHT22;53339;51.378;0.094;2023-06-04T12:59:40;29.20;34.90
26254;DHT22;53339;51.378;0.094;2023-06-04T13:02:07;29.40;34.70
26254;DHT22;53339;51.378;0.094;2023-06-04T13:04:35;29.60;33.60
26254;DHT22;53339;51.378;0.094;2023-06-04T13:07:03;29.70;33.00
26254;DHT22;53339;51.378;0.094;2023-06-04T13:09:31;29.60;31.90
26254;DHT22;53339;51.378;0.094;2023-06-04T13:12:00;29.60;32.50
26254;DHT22;53339;51.378;0.094;2023-06-04T13:14:27;29.70;31.80
26254;DHT22;53339;51.378;0.094;2023-06-04T13:16:57;29.90;31.80
26254;DHT22;53339;51.378;0.094;2023-06-04T13:19:28;30.10;32.30
26254;DHT22;53339;51.378;0.094;2023-06-04T13:21:56;30.20;31.20
26254;DHT22;53339;51.378;0.094;2023-06-04T13:24:25;30.30;30.80
26254;DHT22;53339;51.378;0.094;2023-06-04T13:26:53;30.60;29.50
26254;DHT22;53339;51.378;0.094;2023-06-04T13:29:21;30.70;30.20
26254;DHT22;53339;51.378;0.094;2023-06-04T13:31:50;30.70;28.70
26254;DHT22;53339;51.378;0.094;2023-06-04T13:34:20;30.60;29.60
26254;DHT22;53339;51.378;0.094;2023-06-04T13:36:54;30.70;28.60
26254;DHT22;53339;51.378;0.094;2023-06-04T13:39:22;31.00;28.40
26254;DHT22;53339;51.378;0.094;2023-06-04T13:41:50;30.90;27.90
26254;DHT22;53339;51.378;0.094;2023-06-04T13:44:17;30.80;27.70
26254;DHT22;53339;51.378;0.094;2023-06-04T13:46:45;30.80;28.50
26254;DHT22;53339;51.378;0.094;2023-06-04T13:49:13;31.10;28.00
26254;DHT22;53339;51.378;0.094;2023-06-04T13:51:41;31.30;27.90
26254;DHT22;53339;51.378;0.094;2023-06-04T13:54:08;31.40;27.00
26254;DHT22;53339;51.378;0.094;2023-06-04T13:56:38;31.40;27.30
26254;DHT22;53339;51.378;0.094;2023-06-04T13:59:07;31.60;28.00
26254;DHT22;53339;51.378;0.094;2023-06-04T14:01:34;31.80;26.90
26254;DHT22;53339;51.378;0.094;2023-06-04T14:04:02;31.70;26.60
26254;DHT22;53339;51.378;0.094;2023-06-04T14:06:35;31.80;26.80
26254;DHT22;53339;51.378;0.094;2023-06-04T14:09:06;32.00;26.10
26254;DHT22;53339;51.378;0.094;2023-06-04T14:11:39;32.00;25.70
26254;DHT22;53339;51.378;0.094;2023-06-04T14:14:07;31.90;26.10
26254;DHT22;53339;51.378;0.094;2023-06-04T14:16:35;32.10;26.20
26254;DHT22;53339;51.378;0.094;2023-06-04T14:19:03;32.30;25.10
26254;DHT22;53339;51.378;0.094;2023-06-04T14:21:31;32.30;25.20
26254;DHT22;53339;51.378;0.094;2023-06-04T14:23:59;32.40;25.00
26254;DHT22;53339;51.378;0.094;2023-06-04T14:26:27;32.60;24.60
26254;DHT22;53339;51.378;0.094;2023-06-04T14:28:55;32.60;24.50
26254;DHT22;53339;51.378;0.094;2023-06-04T14:31:23;32.50;24.80
26254;DHT22;53339;51.378;0.094;2023-06-04T14:33:51;32.60;24.50
26254;DHT22;53339;51.378;0.094;2023-06-04T14:36:19;32.70;24.10
26254;DHT22;53339;51.378;0.094;2023-06-04T14:38:47;32.70;23.50
26254;DHT22;53339;51.378;0.094;2023-06-04T14:41:15;32.40;24.10
26254;DHT22;53339;51.378;0.094;2023-06-04T14:43:43;32.30;24.10
26254;DHT22;53339;51.378;0.094;2023-06-04T14:46:11;32.40;23.80
26254;DHT22;53339;51.378;0.094;2023-06-04T14:48:38;32.50;24.10
26254;DHT22;53339;51.378;0.094;2023-06-04T14:51:06;32.60;24.10
26254;DHT22;53339;51.378;0.094;2023-06-04T14:53:34;32.80;24.00
26254;DHT22;53339;51.378;0.094;2023-06-04T14:56:02;33.10;24.20
26254;DHT22;53339;51.378;0.094;2023-06-04T14:58:30;33.30;23.70
26254;DHT22;53339;51.378;0.094;2023-06-04T15:00:59;33.30;23.30
26254;DHT22;53339;51.378;0.094;2023-06-04T15:03:28;33.10;23.40
26254;DHT22;53339;51.378;0.094;2023-06-04T15:05:56;33.10;23.40
26254;DHT22;53339;51.378;0.094;2023-06-04T15:08:37;33.00;23.10
26254;DHT22;53339;51.378;0.094;2023-06-04T15:11:04;32.80;23.20
26254;DHT22;53339;51.378;0.094;2023-06-04T15:13:32;32.70;23.70
26254;DHT22;53339;51.378;0.094;2023-06-04T15:16:00;32.80;23.90
26254;DHT22;53339;51.378;0.094;2023-06-04T15:18:28;33.10;23.60
26254;DHT22;53339;51.378;0.094;2023-06-04T15:20:56;33.30;23.60
26254;DHT22;53339;51.378;0.094;2023-06-04T15:23:23;33.60;23.40
26254;DHT22;53339;51.378;0.094;2023-06-04T15:25:51;33.90;23.20
26254;DHT22;53339;51.378;0.094;2023-06-04T15:28:19;34.00;23.20
26254;DHT22;53339;51.378;0.094;2023-06-04T15:30:47;34.10;22.90
26254;DHT22;53339;51.378;0.094;2023-06-04T15:33:15;34.00;23.10
26254;DHT22;53339;51.378;0.094;2023-06-04T15:35:43;34.10;22.90
26254;DHT22;53339;51.378;0.094;2023-06-04T15:38:11;34.10;23.10
26254;DHT22;53339;51.378;0.094;2023-06-04T15:40:39;34.10;23.00
26254;DHT22;53339;51.378;0.094;2023-06-04T15:43:07;34.10;23.00
26254;DHT22;53339;51.378;0.094;2023-06-04T15:45:34;34.00;23.00
26254;DHT22;53339;51.378;0.094;2023-06-04T15:48:02;33.80;23.00
26254;DHT22;53339;51.378;0.094;2023-06-04T15:50:30;33.70;23.10
26254;DHT22;53339;51.378;0.094;2023-06-04T15:52:58;33.80;23.10
26254;DHT22;53339;51.378;0.094;2023-06-04T15:55:26;33.80;22.90
26254;DHT22;53339;51.378;0.094;2023-06-04T15:57:53;33.70;23.00